Time;durP1;ratioP1;P1;durP2;ratioP2;P2;SDS_P1;SDS_P2;PMS_P1;PMS_P2;Temp;Humidity;BMP_temperature;BMP_pressure;BME280_temperature;BME280_humidity;BME280_pressure;Samples;Min_cycle;Max_cycle;Signal;HPM_P1;HPM_P2
2022/03/22 00:00:49;;;;;;;18.87;11.43;;;1.70;99.90;;;;;;5124498;27;20473;-82
2022/03/22 00:03:16;;;;;;;17.87;10.57;;;1.70;99.90;;;;;;5122655;28;20890;-82
2022/03/22 00:05:42;;;;;;;23.73;11.93;;;1.60;99.90;;;;;;5122649;28;20211;-82
2022/03/22 00:08:11;;;;;;;15.67;9.80;;;1.50;99.90;;;;;;5124153;28;20417;-81
2022/03/22 00:10:38;;;;;;;21.30;11.17;;;1.50;99.90;;;;;;5122922;28;20414;-81
2022/03/22 00:13:05;;;;;;;20.17;11.23;;;1.40;99.90;;;;;;5123505;28;20412;-82
2022/03/22 00:15:32;;;;;;;15.70;10.43;;;1.40;99.90;;;;;;5122759;28;20244;-82
2022/03/22 00:17:59;;;;;;;18.80;11.40;;;1.40;99.90;;;;;;5124806;28;20221;-82
2022/03/22 00:20:25;;;;;;;19.30;11.23;;;;;;;;;;5123335;28;20492;-82
2022/03/22 00:22:51;;;;;;;17.00;10.97;;;1.30;99.90;;;;;;5124609;28;20416;-82
2022/03/22 00:25:17;;;;;;;17.93;10.90;;;1.30;99.90;;;;;;5121047;28;20468;-81
2022/03/22 00:27:51;;;;;;;25.77;11.83;;;1.30;99.90;;;;;;5122423;28;20416;-82
2022/03/22 00:30:28;;;;;;;17.50;10.93;;;1.30;99.90;;;;;;5121871;28;20405;-81
2022/03/22 00:32:56;;;;;;;18.50;10.93;;;1.40;99.90;;;;;;5120735;28;20484;-81
2022/03/22 00:35:26;;;;;;;19.13;10.87;;;1.40;99.90;;;;;;5121817;28;20420;-82
2022/03/22 00:37:54;;;;;;;16.97;10.73;;;1.40;99.90;;;;;;5121320;28;20413;-82
2022/03/22 00:40:27;;;;;;;21.83;10.53;;;1.40;99.90;;;;;;5120389;28;20417;-81
2022/03/22 00:42:53;;;;;;;17.13;11.07;;;1.30;99.90;;;;;;5121375;28;20448;-81
2022/03/22 00:45:23;;;;;;;18.53;11.57;;;1.90;99.90;;;;;;5121381;28;20488;-81
2022/03/22 00:47:51;;;;;;;19.97;12.10;;;1.40;99.90;;;;;;5122851;28;20497;-82
2022/03/22 00:50:20;;;;;;;19.97;11.10;;;1.40;99.90;;;;;;5121595;28;20457;-81
2022/03/22 00:52:47;;;;;;;17.80;11.23;;;1.50;99.90;;;;;;5121106;28;20424;-81
2022/03/22 00:55:13;;;;;;;17.97;11.10;;;2.70;99.90;;;;;;5120904;28;20413;-81
2022/03/22 00:57:40;;;;;;;20.13;11.50;;;1.50;99.90;;;;;;5123024;28;20416;-81
2022/03/22 01:00:10;;;;;;;19.13;11.77;;;1.40;99.90;;;;;;5120473;28;20413;-81
2022/03/22 01:02:38;;;;;;;20.90;11.07;;;1.40;99.90;;;;;;5120473;28;20455;-81
2022/03/22 01:05:07;;;;;;;20.63;10.80;;;1.40;99.90;;;;;;5120591;28;20463;-82
2022/03/22 01:07:33;;;;;;;19.43;11.43;;;1.40;99.90;;;;;;5120876;28;20465;-82
2022/03/22 01:10:05;;;;;;;18.70;10.97;;;1.40;99.90;;;;;;5121917;28;20476;-81
2022/03/22 01:12:35;;;;;;;20.50;11.20;;;1.50;99.90;;;;;;5119923;28;20406;-80
2022/03/22 01:15:03;;;;;;;23.60;11.47;;;1.50;99.90;;;;;;5121115;28;20425;-82
2022/03/22 01:17:31;;;;;;;18.90;11.80;;;1.40;99.90;;;;;;5123147;28;20437;-80
2022/03/22 01:19:57;;;;;;;19.00;10.53;;;1.60;99.90;;;;;;5123284;28;20736;-81
2022/03/22 01:22:23;;;;;;;19.13;11.40;;;1.50;99.90;;;;;;5120165;28;20478;-81
2022/03/22 01:24:52;;;;;;;20.70;10.73;;;1.40;99.90;;;;;;5120380;28;20772;-81
2022/03/22 01:27:21;;;;;;;17.53;9.57;;;1.40;99.90;;;;;;5121440;28;20502;-81
2022/03/22 01:29:48;;;;;;;18.90;10.43;;;1.40;99.90;;;;;;5121842;28;20405;-80
2022/03/22 01:32:14;;;;;;;16.50;10.17;;;1.40;99.90;;;;;;5122814;28;20413;-81
2022/03/22 01:34:40;;;;;;;16.13;10.10;;;1.50;99.90;;;;;;5125801;28;20950;-81
2022/03/22 01:37:05;;;;;;;17.77;9.87;;;1.50;99.90;;;;;;5124394;28;20200;-81
2022/03/22 01:39:31;;;;;;;15.23;9.77;;;1.50;99.90;;;;;;5124015;28;20215;-81
2022/03/22 01:41:57;;;;;;;15.13;9.90;;;1.50;99.90;;;;;;5124812;28;20616;-81
2022/03/22 01:44:28;;;;;;;15.77;10.33;;;1.60;99.90;;;;;;5124967;28;20417;-81
2022/03/22 01:46:58;;;;;;;16.50;9.17;;;1.50;99.90;;;;;;5124790;28;20237;-81
2022/03/22 01:49:24;;;;;;;17.67;10.63;;;1.50;99.90;;;;;;5125393;28;20466;-81
2022/03/22 01:51:52;;;;;;;15.40;10.20;;;1.50;99.90;;;;;;5126429;28;20500;-81
2022/03/22 01:54:18;;;;;;;16.47;10.30;;;1.80;99.90;;;;;;5124517;28;20179;-81
2022/03/22 01:56:44;;;;;;;15.67;9.87;;;1.40;99.90;;;;;;5124854;28;20437;-81
2022/03/22 01:59:10;;;;;;;20.40;10.23;;;2.80;99.90;;;;;;5132111;28;20410;-80
2022/03/22 02:07:09;;;;;;;15.47;9.60;;;1.30;99.90;;;;;;5131296;28;20497;-80
2022/03/22 02:09:35;;;;;;;13.63;9.37;;;1.30;99.90;;;;;;5131003;28;20403;-81
2022/03/22 02:12:01;;;;;;;18.60;9.50;;;1.30;99.90;;;;;;5124760;28;20488;-81
2022/03/22 02:14:27;;;;;;;17.37;9.57;;;1.40;99.90;;;;;;5126712;28;20202;-80
2022/03/22 02:16:52;;;;;;;13.90;9.07;;;1.20;99.90;;;;;;5124457;28;20256;-80
2022/03/22 02:19:18;;;;;;;14.93;8.90;;;1.30;99.90;;;;;;5123105;28;20410;-80
2022/03/22 02:21:46;;;;;;;19.50;10.00;;;1.20;99.90;;;;;;5123962;28;20175;-81
2022/03/22 02:24:12;;;;;;;16.70;10.47;;;;;;;;;;5124425;27;20172;-80
2022/03/22 02:26:38;;;;;;;16.83;9.33;;;1.10;99.90;;;;;;5124459;28;20483;-81
2022/03/22 02:29:05;;;;;;;17.00;9.47;;;1.10;99.90;;;;;;5123568;28;20413;-81
2022/03/22 02:31:31;;;;;;;14.73;9.50;;;1.10;99.90;;;;;;5123878;28;20636;-81
2022/03/22 02:33:57;;;;;;;14.37;9.00;;;1.20;99.90;;;;;;5122776;28;20417;-81
2022/03/22 02:36:23;;;;;;;17.63;9.73;;;2.10;99.90;;;;;;5122433;28;20445;-80
2022/03/22 02:38:51;;;;;;;13.80;8.43;;;1.10;99.90;;;;;;5124931;28;20421;-81
2022/03/22 02:41:22;;;;;;;17.10;9.90;;;1.10;99.90;;;;;;5126007;28;20247;-81
2022/03/22 02:43:50;;;;;;;13.93;8.63;;;1.10;99.90;;;;;;5121654;28;20405;-80
2022/03/22 02:46:15;;;;;;;12.40;8.73;;;0.90;99.90;;;;;;5121624;28;20468;-80
2022/03/22 02:48:42;;;;;;;15.60;8.67;;;1.40;99.90;;;;;;5125623;28;20412;-81
2022/03/22 02:51:07;;;;;;;16.47;9.30;;;1.00;99.90;;;;;;5125020;28;20171;-80
2022/03/22 02:53:33;;;;;;;15.10;9.47;;;0.80;99.90;;;;;;5122083;28;20493;-80
2022/03/22 02:55:59;;;;;;;20.13;9.70;;;1.40;99.90;;;;;;5120966;28;20199;-81
2022/03/22 02:58:26;;;;;;;17.70;9.57;;;0.70;99.90;;;;;;5120593;28;20641;-80
2022/03/22 03:00:51;;;;;;;19.27;9.90;;;0.70;99.90;;;;;;5122969;28;20176;-81
2022/03/22 03:03:22;;;;;;;13.80;9.33;;;0.60;99.90;;;;;;5122323;28;20456;-81
2022/03/22 03:05:51;;;;;;;17.27;9.23;;;0.60;99.90;;;;;;5122392;28;20207;-80
2022/03/22 03:08:18;;;;;;;17.00;9.40;;;0.60;99.90;;;;;;5123079;28;20421;-80
2022/03/22 03:10:45;;;;;;;17.57;9.47;;;0.60;99.90;;;;;;5122730;28;20486;-82
2022/03/22 03:13:11;;;;;;;15.03;9.80;;;1.60;99.90;;;;;;5121815;27;20886;-80
2022/03/22 03:15:37;;;;;;;15.37;10.03;;;0.50;99.90;;;;;;5120397;28;20490;-79
2022/03/22 03:18:03;;;;;;;18.03;9.70;;;0.50;99.90;;;;;;5122051;28;20492;-80
2022/03/22 03:20:29;;;;;;;15.07;9.40;;;0.50;99.90;;;;;;5120828;28;20633;-79
2022/03/22 03:22:55;;;;;;;18.67;9.03;;;0.50;99.90;;;;;;5120534;28;20405;-79
2022/03/22 03:25:21;;;;;;;17.63;10.90;;;0.50;99.90;;;;;;5120332;28;20210;-79
2022/03/22 03:27:47;;;;;;;19.17;10.37;;;0.40;99.90;;;;;;5120438;28;20206;-80
2022/03/22 03:30:14;;;;;;;17.23;10.37;;;0.50;99.90;;;;;;5122249;28;20405;-79
2022/03/22 03:32:39;;;;;;;19.70;10.70;;;0.40;99.90;;;;;;5119690;28;20414;-79
2022/03/22 03:35:06;;;;;;;19.03;11.50;;;0.50;99.90;;;;;;5120137;28;20477;-81
2022/03/22 03:37:35;;;;;;;16.57;9.73;;;0.40;99.90;;;;;;5119865;28;20211;-79
2022/03/22 03:40:01;;;;;;;14.50;9.53;;;0.40;99.90;;;;;;5122397;28;20409;-80
2022/03/22 03:42:26;;;;;;;15.10;8.97;;;0.20;99.90;;;;;;5122318;28;20770;-80
2022/03/22 03:47:36;;;;;;;17.27;10.57;;;0.20;99.90;;;;;;5123336;28;20352;-80
2022/03/22 03:50:05;;;;;;;16.90;9.10;;;0.30;99.90;;;;;;5121535;28;20405;-81
2022/03/22 03:52:34;;;;;;;14.63;9.53;;;0.30;99.90;;;;;;5124790;28;20176;-79
2022/03/22 03:55:00;;;;;;;17.33;9.67;;;1.40;99.90;;;;;;5136291;28;20412;-80
2022/03/22 03:57:27;;;;;;;14.97;9.03;;;0.30;99.90;;;;;;5130177;28;20427;-80
2022/03/22 03:59:54;;;;;;;14.03;8.93;;;0.20;99.90;;;;;;5122455;28;20405;-80
2022/03/22 04:02:21;;;;;;;16.60;9.37;;;0.20;99.90;;;;;;5120832;28;20454;-81
2022/03/22 04:04:51;;;;;;;19.57;10.43;;;0.20;99.90;;;;;;5121019;28;20413;-80
2022/03/22 04:07:19;;;;;;;15.80;8.70;;;0.20;99.90;;;;;;5121105;28;20449;-80
2022/03/22 04:09:44;;;;;;;19.27;9.70;;;0.10;99.90;;;;;;5121210;28;20409;-80
2022/03/22 04:12:11;;;;;;;14.77;9.47;;;0.10;99.90;;;;;;5121662;28;20409;-80
2022/03/22 04:14:37;;;;;;;16.30;8.33;;;0.00;99.90;;;;;;5119653;28;20179;-80
2022/03/22 04:17:04;;;;;;;16.53;8.90;;;0.10;99.90;;;;;;5119484;28;20433;-80
2022/03/22 04:19:30;;;;;;;15.50;8.50;;;-0.10;99.90;;;;;;5119501;28;20171;-79
2022/03/22 04:21:56;;;;;;;18.27;8.73;;;-0.10;99.90;;;;;;5119401;28;20417;-80
2022/03/22 04:24:22;;;;;;;13.40;9.20;;;-0.20;99.90;;;;;;5120872;28;20413;-79
2022/03/22 04:26:48;;;;;;;16.17;8.47;;;-0.20;99.90;;;;;;5118902;28;20514;-79
2022/03/22 04:34:46;;;;;;;14.53;8.37;;;-0.20;99.90;;;;;;5120613;28;20463;-81
2022/03/22 04:37:14;;;;;;;16.67;9.37;;;-0.10;99.90;;;;;;5121627;28;20439;-80
2022/03/22 04:39:46;;;;;;;14.57;8.57;;;-0.20;99.90;;;;;;5122160;28;20401;-80
2022/03/22 04:42:14;;;;;;;12.80;8.33;;;-0.10;99.90;;;;;;5121593;28;20401;-81
2022/03/22 04:44:39;;;;;;;17.77;9.07;;;1.00;99.90;;;;;;5120618;28;20417;-81
2022/03/22 04:47:06;;;;;;;13.33;8.30;;;1.00;99.90;;;;;;5122367;28;20456;-81
2022/03/22 04:49:33;;;;;;;16.93;8.73;;;-0.20;99.90;;;;;;5123450;28;20611;-79
2022/03/22 04:57:27;;;;;;;13.47;7.63;;;1.30;99.90;;;;;;5121835;28;20485;-80
2022/03/22 04:59:54;;;;;;;11.80;7.30;;;0.10;99.90;;;;;;5121569;28;20437;-80
2022/03/22 05:02:20;;;;;;;11.60;7.43;;;0.10;99.90;;;;;;5120580;28;20194;-80
2022/03/22 05:04:45;;;;;;;12.80;7.80;;;0.10;99.90;;;;;;5120673;28;20508;-80
2022/03/22 05:07:11;;;;;;;15.37;8.20;;;2.30;99.90;;;;;;5123322;28;21005;-81
2022/03/22 05:09:38;;;;;;;10.53;6.97;;;0.60;99.90;;;;;;5124095;28;20540;-80
2022/03/22 05:12:04;;;;;;;13.77;7.37;;;0.30;99.90;;;;;;5123540;28;20255;-80
2022/03/22 05:14:30;;;;;;;11.00;7.33;;;0.30;99.90;;;;;;5123372;28;20413;-80
2022/03/22 05:16:56;;;;;;;10.97;6.90;;;0.30;99.90;;;;;;5124192;28;20429;-80
2022/03/22 05:19:23;;;;;;;14.23;7.60;;;1.70;99.90;;;;;;5123042;28;20189;-81
2022/03/22 05:21:49;;;;;;;13.33;7.40;;;0.30;99.90;;;;;;5124825;28;20436;-80
2022/03/22 05:24:14;;;;;;;14.37;8.17;;;0.40;99.90;;;;;;5125231;28;20798;-80
2022/03/22 05:26:40;;;;;;;16.23;7.87;;;0.10;99.90;;;;;;5124445;28;20199;-80
2022/03/22 05:29:06;;;;;;;13.63;7.70;;;0.50;99.90;;;;;;5124495;28;20171;-80
2022/03/22 05:31:34;;;;;;;16.77;8.23;;;0.80;99.90;;;;;;5125639;28;20203;-79
2022/03/22 05:34:00;;;;;;;13.10;7.93;;;0.00;99.90;;;;;;5124705;28;20183;-80
2022/03/22 05:36:26;;;;;;;14.37;8.57;;;;;;;;;;5124203;28;20524;-80
2022/03/22 05:38:52;;;;;;;10.70;7.13;;;0.00;99.90;;;;;;5124201;28;20413;-80
2022/03/22 05:41:19;;;;;;;12.90;7.40;;;1.70;99.90;;;;;;5124603;28;20954;-79
2022/03/22 05:43:45;;;;;;;15.13;9.23;;;0.00;99.90;;;;;;5129799;28;20179;-80
2022/03/22 05:46:10;;;;;;;12.63;8.13;;;0.10;99.90;;;;;;5132092;28;20515;-79
2022/03/22 05:48:39;;;;;;;14.57;8.07;;;0.10;99.90;;;;;;5129959;28;20304;-79
2022/03/22 05:51:05;;;;;;;17.73;8.43;;;1.40;99.90;;;;;;5122143;28;20183;-81
2022/03/22 05:53:31;;;;;;;17.87;7.83;;;0.20;99.90;;;;;;5123304;28;20500;-80
2022/03/22 05:55:57;;;;;;;11.47;7.23;;;0.20;99.90;;;;;;5122915;28;20464;-80
2022/03/22 05:58:23;;;;;;;17.20;8.17;;;0.50;99.90;;;;;;5123032;28;20176;-80
2022/03/22 06:00:49;;;;;;;13.00;8.07;;;0.30;99.90;;;;;;5122642;28;20636;-80
2022/03/22 06:03:15;;;;;;;14.27;7.67;;;0.40;99.90;;;;;;5121581;28;20653;-79
2022/03/22 06:05:42;;;;;;;13.07;7.80;;;0.50;99.90;;;;;;5123220;28;20296;-80
2022/03/22 06:08:08;;;;;;;13.37;6.63;;;0.50;99.90;;;;;;5124286;28;20663;-80
2022/03/22 06:10:34;;;;;;;15.60;8.43;;;0.60;99.90;;;;;;5118914;28;20415;-81
2022/03/22 06:13:00;;;;;;;14.50;7.97;;;0.70;99.90;;;;;;5122328;28;20512;-80
2022/03/22 06:15:29;;;;;;;13.40;7.47;;;0.80;99.90;;;;;;5120737;28;20179;-80
2022/03/22 06:18:06;;;;;;;13.33;6.90;;;0.80;99.90;;;;;;5119282;28;20447;-81
2022/03/22 06:20:34;;;;;;;14.83;7.10;;;0.80;99.90;;;;;;5119774;28;20421;-81
2022/03/22 06:23:02;;;;;;;13.70;6.77;;;0.70;99.90;;;;;;5121458;28;20453;-82
2022/03/22 06:25:28;;;;;;;16.53;7.47;;;;;;;;;;5121795;28;20530;-81
2022/03/22 06:27:55;;;;;;;10.67;7.63;;;0.70;99.90;;;;;;5125397;28;20417;-81
2022/03/22 06:30:22;;;;;;;15.17;8.00;;;0.70;99.90;;;;;;5124295;28;20414;-82
2022/03/22 06:32:59;;;;;;;12.77;7.13;;;0.70;99.90;;;;;;5122661;28;20418;-82
2022/03/22 06:35:27;;;;;;;14.70;8.23;;;0.90;99.90;;;;;;5122559;28;20440;-81
2022/03/22 06:37:54;;;;;;;14.47;7.77;;;1.10;99.90;;;;;;5122578;28;20409;-82
2022/03/22 06:40:23;;;;;;;19.33;8.00;;;2.00;99.90;;;;;;5121455;28;20508;-81
2022/03/22 06:42:49;;;;;;;12.63;7.50;;;;;;;;;;5122454;28;20508;-82
2022/03/22 06:45:15;;;;;;;13.93;8.37;;;1.40;99.90;;;;;;5125440;28;20539;-82
2022/03/22 06:47:42;;;;;;;15.43;7.70;;;1.50;99.90;;;;;;5124840;28;20402;-82
2022/03/22 06:50:10;;;;;;;19.33;8.50;;;2.30;99.90;;;;;;5122850;28;20914;-81
2022/03/22 06:52:36;;;;;;;10.60;6.97;;;1.90;99.90;;;;;;5123364;28;20401;-83
2022/03/22 06:55:02;;;;;;;14.87;8.07;;;;;;;;;;5122730;28;20462;-81
2022/03/22 06:57:29;;;;;;;14.47;8.07;;;;;;;;;;5123073;28;20480;-83
2022/03/22 06:59:58;;;;;;;13.23;7.40;;;2.20;99.90;;;;;;5122881;28;20485;-82
2022/03/22 07:02:25;;;;;;;15.30;7.83;;;;;;;;;;5124126;27;20209;-83
2022/03/22 07:04:51;;;;;;;12.50;7.00;;;2.60;99.90;;;;;;5122731;28;20962;-82
2022/03/22 07:07:17;;;;;;;13.67;6.73;;;2.70;99.90;;;;;;5121815;28;20227;-80
2022/03/22 07:09:43;;;;;;;10.57;6.87;;;2.80;99.90;;;;;;5121021;28;20175;-81
2022/03/22 07:12:10;;;;;;;13.20;6.63;;;3.00;99.90;;;;;;5122574;28;20235;-80
2022/03/22 07:14:38;;;;;;;16.33;8.20;;;3.30;99.90;;;;;;5121386;28;20207;-82
2022/03/22 07:17:05;;;;;;;11.87;7.27;;;3.70;99.90;;;;;;5121851;28;20219;-82
2022/03/22 07:19:31;;;;;;;12.10;7.20;;;4.10;99.90;;;;;;5124911;28;20236;-82
2022/03/22 07:21:59;;;;;;;11.80;7.40;;;4.20;99.90;;;;;;5123715;28;20176;-83
2022/03/22 07:24:24;;;;;;;18.60;7.30;;;4.40;99.90;;;;;;5122541;28;20229;-82
2022/03/22 07:26:50;;;;;;;17.33;7.43;;;4.50;99.90;;;;;;5121680;28;20211;-82
2022/03/22 07:29:16;;;;;;;14.63;7.00;;;4.50;99.90;;;;;;5128198;28;20179;-81
2022/03/22 07:31:41;;;;;;;10.70;6.73;;;4.80;99.90;;;;;;5133439;28;20184;-81
2022/03/22 07:34:18;;;;;;;13.60;6.90;;;5.30;99.90;;;;;;5120989;28;20179;-82
2022/03/22 07:36:46;;;;;;;15.03;7.33;;;6.00;99.90;;;;;;5122263;28;20187;-84
2022/03/22 07:39:13;;;;;;;12.37;7.07;;;6.30;98.60;;;;;;5122585;28;20630;-82
2022/03/22 07:41:43;;;;;;;18.80;8.03;;;6.60;96.80;;;;;;5127784;28;20278;-82
2022/03/22 07:44:12;;;;;;;12.27;7.40;;;6.90;95.90;;;;;;5130405;28;20181;-83
2022/03/22 07:46:39;;;;;;;17.10;8.33;;;7.20;94.90;;;;;;5123863;28;20262;-82
2022/03/22 07:54:32;;;;;;;16.10;8.73;;;8.00;92.40;;;;;;5121240;28;20194;-82
2022/03/22 07:56:58;;;;;;;10.67;7.43;;;8.50;91.60;;;;;;5122073;28;20197;-82
2022/03/22 07:59:27;;;;;;;15.47;7.03;;;9.10;90.50;;;;;;5121661;28;20188;-82
2022/03/22 08:01:53;;;;;;;11.87;7.80;;;10.00;87.00;;;;;;5121889;28;20175;-82
2022/03/22 08:04:19;;;;;;;14.17;7.40;;;10.90;81.10;;;;;;5121345;28;20648;-82
2022/03/22 08:06:45;;;;;;;11.60;7.13;;;11.50;77.10;;;;;;5121141;28;20207;-82
2022/03/22 08:09:26;;;;;;;13.67;7.30;;;11.90;74.40;;;;;;5078230;28;20543;-82
2022/03/22 08:11:52;;;;;;;9.63;6.70;;;12.40;71.90;;;;;;5076297;28;20602;-82
2022/03/22 08:14:19;;;;;;;11.70;6.83;;;13.10;67.60;;;;;;5075998;28;20239;-82
2022/03/22 08:16:45;;;;;;;9.47;6.60;;;13.80;59.90;;;;;;5077430;28;20634;-83
2022/03/22 08:19:17;;;;;;;13.90;7.90;;;13.40;58.60;;;;;;5076346;28;20247;-82
2022/03/22 08:21:43;;;;;;;16.00;8.50;;;13.60;58.40;;;;;;5076367;28;20165;-83
2022/03/22 08:24:09;;;;;;;13.93;8.10;;;14.00;56.10;;;;;;5076966;28;20181;-83
2022/03/22 08:26:35;;;;;;;12.30;8.30;;;14.70;56.70;;;;;;5077711;28;20208;-83
2022/03/22 08:29:00;;;;;;;13.60;8.40;;;14.90;54.20;;;;;;5075976;28;20205;-83
2022/03/22 08:31:26;;;;;;;14.30;8.97;;;15.20;54.50;;;;;;5075819;28;20284;-83
2022/03/22 08:33:53;;;;;;;11.63;8.40;;;15.70;54.60;;;;;;5075024;28;20192;-83
2022/03/22 08:36:20;;;;;;;15.33;8.63;;;15.80;51.60;;;;;;5075263;28;20668;-83
2022/03/22 08:38:46;;;;;;;13.10;9.50;;;16.00;50.70;;;;;;5075052;28;20185;-83
2022/03/22 08:41:12;;;;;;;15.93;9.73;;;16.00;53.00;;;;;;5075397;28;20690;-83
2022/03/22 08:43:37;;;;;;;16.43;9.70;;;16.00;50.20;;;;;;5074540;28;20194;-83
2022/03/22 08:46:05;;;;;;;14.67;10.87;;;16.10;52.10;;;;;;5076612;28;20198;-83
2022/03/22 08:48:31;;;;;;;15.00;10.53;;;16.00;51.70;;;;;;5076475;28;20200;-83
2022/03/22 08:50:58;;;;;;;13.13;9.27;;;16.10;51.90;;;;;;5076439;28;20259;-83
2022/03/22 08:53:24;;;;;;;12.43;9.57;;;16.40;53.90;;;;;;5075144;28;20505;-83
2022/03/22 08:55:50;;;;;;;16.50;10.10;;;16.30;49.90;;;;;;5074853;28;20191;-83
2022/03/22 08:58:17;;;;;;;14.13;11.27;;;16.30;49.20;;;;;;5074337;28;20626;-83
2022/03/22 09:00:45;;;;;;;19.10;11.27;;;15.90;49.00;;;;;;5075496;28;20233;-83
2022/03/22 09:03:11;;;;;;;19.43;10.53;;;15.70;52.70;;;;;;5074654;28;20215;-83
2022/03/22 09:08:21;;;;;;;16.10;11.07;;;15.70;53.90;;;;;;5076265;28;20215;-83
2022/03/22 09:10:49;;;;;;;12.07;9.70;;;16.00;50.60;;;;;;5077176;28;20169;-83
2022/03/22 09:13:15;;;;;;;12.83;9.87;;;16.10;53.10;;;;;;5076331;28;20264;-83
2022/03/22 09:15:41;;;;;;;13.60;10.20;;;16.60;53.20;;;;;;5073632;28;20541;-83
2022/03/22 09:18:16;;;;;;;13.57;10.40;;;16.70;52.70;;;;;;5074591;28;20234;-83
2022/03/22 09:20:46;;;;;;;20.63;9.80;;;17.00;52.60;;;;;;5062773;28;20215;-83
2022/03/22 09:23:13;;;;;;;14.30;9.80;;;17.10;51.80;;;;;;5060546;28;20200;-83
2022/03/22 09:25:39;;;;;;;17.70;9.67;;;17.00;50.10;;;;;;5062068;28;20553;-83
2022/03/22 09:28:06;;;;;;;14.57;9.67;;;16.80;50.30;;;;;;5061286;28;20199;-83
2022/03/22 09:30:34;;;;;;;14.37;11.07;;;16.80;51.60;;;;;;5061127;28;20178;-83
2022/03/22 09:33:01;;;;;;;11.47;8.93;;;16.70;49.80;;;;;;5060858;28;20177;-83
2022/03/22 09:35:28;;;;;;;17.23;9.77;;;16.80;51.60;;;;;;5061000;28;20183;-83
2022/03/22 09:37:54;;;;;;;17.40;11.10;;;16.20;50.50;;;;;;5061315;28;20193;-83
2022/03/22 09:40:21;;;;;;;12.00;8.80;;;16.30;52.00;;;;;;5062489;28;20185;-83
2022/03/22 09:42:48;;;;;;;14.73;9.70;;;16.70;52.10;;;;;;5061503;28;20215;-84
2022/03/22 09:45:17;;;;;;;13.13;10.70;;;16.90;50.00;;;;;;5064794;28;20241;-83
2022/03/22 09:47:45;;;;;;;16.10;9.70;;;17.00;50.40;;;;;;5065109;28;20206;-83
2022/03/22 09:50:13;;;;;;;14.80;10.17;;;17.00;52.70;;;;;;5065138;28;20184;-83
2022/03/22 09:52:40;;;;;;;16.33;9.30;;;17.10;50.60;;;;;;5060014;28;20216;-83
2022/03/22 09:55:07;;;;;;;11.73;9.33;;;16.90;50.60;;;;;;5060655;28;20170;-83
2022/03/22 09:57:33;;;;;;;12.07;9.87;;;17.20;50.40;;;;;;5059674;28;20204;-83
2022/03/22 09:59:59;;;;;;;11.97;9.97;;;17.20;49.00;;;;;;5061063;28;20539;-84
2022/03/22 10:02:29;;;;;;;15.20;9.80;;;16.90;50.70;;;;;;5062092;28;20184;-83
2022/03/22 10:04:55;;;;;;;11.30;9.30;;;17.20;50.40;;;;;;5060798;28;20185;-84
2022/03/22 10:07:22;;;;;;;14.10;9.40;;;17.60;49.30;;;;;;5062037;28;20223;-84
2022/03/22 10:09:52;;;;;;;15.40;11.57;;;17.50;48.80;;;;;;5061466;28;20177;-83
2022/03/22 10:12:29;;;;;;;12.87;9.37;;;17.20;47.00;;;;;;5061024;28;20230;-84
2022/03/22 10:15:05;;;;;;;12.20;8.33;;;17.10;48.50;;;;;;5062251;28;20180;-83
2022/03/22 10:17:31;;;;;;;17.20;9.43;;;16.90;47.90;;;;;;5061138;28;20278;-83
2022/03/22 10:19:57;;;;;;;11.17;9.77;;;17.00;51.50;;;;;;5063428;28;20177;-84
2022/03/22 10:22:24;;;;;;;12.80;8.97;;;17.40;48.90;;;;;;5064113;28;20187;-84
2022/03/22 10:24:55;;;;;;;14.37;10.03;;;17.50;50.70;;;;;;5062011;28;20181;-84
2022/03/22 10:27:34;;;;;;;15.77;10.33;;;17.30;49.10;;;;;;5062715;28;20214;-83
2022/03/22 10:30:06;;;;;;;13.33;9.40;;;17.60;50.20;;;;;;5065310;28;20615;-83
2022/03/22 10:32:34;;;;;;;11.87;8.97;;;18.10;49.70;;;;;;5059685;28;20159;-83
2022/03/22 10:35:12;;;;;;;11.83;9.70;;;18.10;46.90;;;;;;5059814;28;20647;-84
2022/03/22 10:37:41;;;;;;;10.67;9.43;;;17.60;47.30;;;;;;5058947;28;20205;-83
2022/03/22 10:40:20;;;;;;;13.17;9.93;;;17.40;44.80;;;;;;5060259;28;20230;-84
2022/03/22 10:42:47;;;;;;;11.23;9.43;;;17.80;46.70;;;;;;5059324;28;20165;-83
2022/03/22 10:45:13;;;;;;;14.30;9.70;;;17.60;46.00;;;;;;5061182;28;20200;-83
2022/03/22 10:47:38;;;;;;;13.70;9.60;;;17.50;47.30;;;;;;5059405;28;20288;-83
2022/03/22 10:50:05;;;;;;;14.23;9.50;;;18.10;47.20;;;;;;5062267;28;20643;-83
2022/03/22 10:52:40;;;;;;;12.73;9.30;;;18.50;47.60;;;;;;5060374;28;20176;-83
2022/03/22 10:55:07;;;;;;;10.57;8.30;;;19.00;47.10;;;;;;5059647;28;20157;-83
2022/03/22 10:57:37;;;;;;;11.33;8.57;;;18.90;43.90;;;;;;5060321;28;20220;-84
2022/03/22 11:00:08;;;;;;;11.00;9.13;;;19.00;44.80;;;;;;5060210;28;20158;-84
2022/03/22 11:02:37;;;;;;;18.53;10.40;;;19.00;46.80;;;;;;5059272;28;20182;-84
2022/03/22 11:05:04;;;;;;;12.83;8.40;;;19.10;45.00;;;;;;5060651;28;20220;-83
2022/03/22 11:07:39;;;;;;;12.73;9.33;;;19.10;45.20;;;;;;5058385;28;20225;-84
2022/03/22 11:10:06;;;;;;;10.87;8.63;;;19.20;46.00;;;;;;5058939;28;20179;-82
2022/03/22 11:12:33;;;;;;;10.87;9.00;;;19.20;44.90;;;;;;5058208;28;20523;-85
2022/03/22 11:15:00;;;;;;;12.13;9.70;;;19.70;44.70;;;;;;5058956;28;20235;-82
2022/03/22 11:17:28;;;;;;;13.80;9.90;;;19.90;45.70;;;;;;5058448;28;20198;-82
2022/03/22 11:19:59;;;;;;;10.70;9.57;;;19.70;42.40;;;;;;5059833;28;20207;-83
2022/03/22 11:22:25;;;;;;;15.33;9.63;;;19.70;44.10;;;;;;5059661;28;20174;-83
2022/03/22 11:24:51;;;;;;;13.23;10.33;;;19.30;41.30;;;;;;5058174;28;20528;-83
2022/03/22 11:27:28;;;;;;;12.97;10.07;;;19.30;43.80;;;;;;5063566;28;20198;-83
2022/03/22 11:29:55;;;;;;;14.83;9.80;;;19.00;44.60;;;;;;5063221;28;20623;-83
2022/03/22 11:35:13;;;;;;;10.83;9.30;;;19.00;43.90;;;;;;5071713;28;20571;-83
2022/03/22 11:37:40;;;;;;;12.07;9.53;;;19.00;44.90;;;;;;5062173;28;20201;-82
2022/03/22 11:43:07;;;;;;;12.33;9.70;;;20.20;44.50;;;;;;5060390;28;20523;-83
2022/03/22 11:45:34;;;;;;;17.13;10.07;;;20.90;44.10;;;;;;5061719;28;20172;-82
2022/03/22 11:48:07;;;;;;;13.60;10.47;;;21.40;43.50;;;;;;5060213;28;20218;-82
2022/03/22 11:50:34;;;;;;;12.40;10.63;;;20.70;42.80;;;;;;5059823;28;20159;-82
2022/03/22 11:53:01;;;;;;;13.17;10.23;;;20.60;42.70;;;;;;5058625;28;20187;-82
2022/03/22 11:55:27;;;;;;;14.33;10.87;;;20.40;43.10;;;;;;5060527;28;20171;-80
2022/03/22 11:57:58;;;;;;;10.90;9.80;;;20.00;44.60;;;;;;5070833;28;20195;-81
2022/03/22 12:00:56;;;;;;;15.77;11.13;;;20.50;42.90;;;;;;5057025;28;20163;-82
2022/03/22 12:03:28;;;;;;;16.17;10.27;;;19.90;42.30;;;;;;5057752;28;20189;-82
2022/03/22 12:05:54;;;;;;;12.07;10.33;;;20.20;43.30;;;;;;5057535;28;20208;-83
2022/03/22 12:08:20;;;;;;;12.73;10.80;;;20.40;43.50;;;;;;5057418;28;20210;-83
2022/03/22 12:10:51;;;;;;;11.47;10.17;;;20.50;41.10;;;;;;5057808;28;20212;-84
2022/03/22 12:13:18;;;;;;;12.47;10.73;;;21.10;41.00;;;;;;5058320;28;20182;-84
2022/03/22 12:15:44;;;;;;;12.00;10.33;;;21.00;40.20;;;;;;5056794;28;20293;-83
2022/03/22 12:18:11;;;;;;;12.63;10.03;;;21.00;41.70;;;;;;5055155;28;20224;-84
2022/03/22 12:20:38;;;;;;;13.67;10.03;;;20.90;39.00;;;;;;5055305;28;20269;-83
2022/03/22 12:23:06;;;;;;;11.43;9.47;;;20.80;39.70;;;;;;5055869;28;20207;-82
2022/03/22 12:25:35;;;;;;;10.97;9.57;;;21.20;39.70;;;;;;5058697;28;20304;-85
2022/03/22 12:28:01;;;;;;;12.60;10.23;;;21.40;38.00;;;;;;5078726;28;20197;-83
2022/03/22 12:30:33;;;;;;;12.17;9.77;;;21.20;39.00;;;;;;5067823;28;20177;-83
2022/03/22 12:33:07;;;;;;;10.93;9.73;;;21.40;38.90;;;;;;5058051;28;20181;-83
2022/03/22 12:35:34;;;;;;;11.83;9.43;;;21.60;38.60;;;;;;5067647;28;20173;-83
2022/03/22 12:38:00;;;;;;;11.37;9.37;;;22.10;37.10;;;;;;5042929;28;20535;-83
2022/03/22 12:40:26;;;;;;;12.10;9.47;;;22.40;37.00;;;;;;5060797;28;20216;-83
2022/03/22 12:42:54;;;;;;;13.53;10.03;;;22.40;37.30;;;;;;5069455;28;20218;-83
2022/03/22 12:45:21;;;;;;;13.63;9.10;;;22.30;37.90;;;;;;5070878;28;20181;-82
2022/03/22 12:47:48;;;;;;;12.43;10.17;;;22.30;36.10;;;;;;5062112;28;20197;-82
2022/03/22 12:50:16;;;;;;;12.53;9.80;;;22.00;36.90;;;;;;5057686;28;20175;-84
2022/03/22 12:52:42;;;;;;;10.93;9.30;;;22.40;36.00;;;;;;5057337;28;20232;-83
2022/03/22 12:55:10;;;;;;;11.23;9.70;;;22.60;34.60;;;;;;5063199;28;20197;-83
2022/03/22 12:57:38;;;;;;;11.43;8.80;;;22.50;35.50;;;;;;5061507;28;20200;-82
2022/03/22 13:00:05;;;;;;;13.27;8.93;;;23.20;34.20;;;;;;5060211;28;20713;-82
2022/03/22 13:02:31;;;;;;;9.40;8.20;;;23.00;32.50;;;;;;5060340;28;20175;-82
2022/03/22 13:04:56;;;;;;;10.63;8.70;;;23.20;33.20;;;;;;5060862;28;20268;-83
2022/03/22 13:07:24;;;;;;;9.37;8.37;;;23.60;33.00;;;;;;5063086;28;20206;-82
2022/03/22 13:12:39;;;;;;;10.00;8.17;;;23.40;32.80;;;;;;5073485;28;20205;-82
2022/03/22 13:15:13;;;;;;;9.77;8.77;;;22.90;32.20;;;;;;5083544;28;20171;-82
2022/03/22 13:17:48;;;;;;;13.53;8.90;;;22.50;34.50;;;;;;5082806;28;20196;-82
2022/03/22 13:20:21;;;;;;;9.40;8.20;;;22.60;32.80;;;;;;5079963;28;20178;-83